METAR AND TAF INFORMATION

METAR FOR YPXM
ADDS - METARS form results

(2313 UTC 26 November 2022)
Data provider http://aviationweather.gov/metar/data/
 
METAR text: YPXM 262300Z AUTO 13006KT 9999 // BKN009 BKN013 24/24 Q1011
Conditions at: YPXM (CHRISTMAS ISL (P, AU) observed 2300 UTC 26 November 2022
Temperature: 24.0°C (75°F)
Dewpoint: 24.0°C (75°F) [RH = 100%]
Pressure (altimeter): 29.85 inches Hg (1011.0 mb)
Winds: from the SE (130 degrees) at 7 MPH (6 knots; 3.1 m/s)
Visibility: 6 or more miles (10+ km)
Ceiling: 900 feet AGL
Clouds: broken clouds at 900 feet AGL
broken clouds at 1300 feet AGL
Weather: no significant weather observed at this time

METAR text: YPXM 262230Z AUTO 13006KT 9999 // BKN011 BKN016 24/24 Q1011
Conditions at: YPXM (CHRISTMAS ISL (P, AU) observed 2230 UTC 26 November 2022
Temperature: 24.0°C (75°F)
Dewpoint: 24.0°C (75°F) [RH = 100%]
Pressure (altimeter): 29.85 inches Hg (1011.0 mb)
Winds: from the SE (130 degrees) at 7 MPH (6 knots; 3.1 m/s)
Visibility: 6 or more miles (10+ km)
Ceiling: 1100 feet AGL
Clouds: broken clouds at 1100 feet AGL
broken clouds at 1600 feet AGL
Weather: no significant weather observed at this time

Forecast for: YPXM (CHRISTMAS ISL (P, AU)
Text: TAF YPXM 261719Z 2618/2718 13008KT 9999 BKN010
Forecast period: 1800 UTC 26 November 2022 to 1800 UTC 27 November 2022
Forecast type: FROM: standard forecast or significant change
Winds: from the SE (130 degrees) at 9 MPH (8 knots; 4.1 m/s)
Visibility: 6 or more miles (10+ km)
Ceiling: 1000 feet AGL
Clouds: broken clouds at 1000 feet AGL
Weather: no significant weather forecast for this period

 

AIRPORT MAP

 

RUNWAY INFORMATION

Runway 18 Runway length 6900 ft Runway width 148 ft
Runway elevation 916 ft Runway displaced threshold 0 ft Runway heading 175
Runway 36 Runway length 6900 ft Runway width 148 ft
Runway elevation 810 ft Runway displaced threshold 0 ft Runway heading 355

 

AIRPORT FREQUENCIES

Type CTAF Name CTAF Frequency 122.8 MHZ
Type FSS Name RDO Frequency 347 MHZ

 

AIRPORT NEAR NAVIGATION AIDS

Type VOR-DME Name Christmas Island Frequency 112400 KHZ